Time;durP1;ratioP1;P1;durP2;ratioP2;P2;SDS_P1;SDS_P2;PMS_P1;PMS_P2;Temp;Humidity;BMP_temperature;BMP_pressure;BME280_temperature;BME280_humidity;BME280_pressure;Samples;Min_cycle;Max_cycle;Signal;HPM_P1;HPM_P2
2021/10/02 00:35:25;;;;;;;8.48;5.40;;;13.60;99.90;;;;;;5013905;28;20040;-75
2021/10/02 00:46:02;;;;;;;12.13;6.35;;;13.60;99.90;;;;;;5017396;28;20085;-79
2021/10/02 00:48:29;;;;;;;10.13;5.88;;;13.60;99.90;;;;;;5017651;28;20018;-78
2021/10/02 00:50:59;;;;;;;10.00;6.30;;;13.60;99.90;;;;;;5015729;28;20022;-78
2021/10/02 00:53:24;;;;;;;12.95;5.78;;;13.60;99.90;;;;;;5016138;28;20026;-79
2021/10/02 00:55:50;;;;;;;11.60;7.03;;;13.60;99.90;;;;;;5017734;28;20041;-79
2021/10/02 00:58:17;;;;;;;15.00;6.22;;;13.60;99.90;;;;;;5015704;28;20026;-78
2021/10/02 01:00:46;;;;;;;12.68;6.25;;;13.60;99.90;;;;;;5015368;28;20029;-79
2021/10/02 01:03:35;;;;;;;10.18;5.43;;;13.60;99.90;;;;;;5015442;28;20030;-78
2021/10/02 01:06:11;;;;;;;11.73;5.88;;;13.60;99.90;;;;;;5017325;28;20182;-79
2021/10/02 01:08:46;;;;;;;13.32;6.10;;;13.60;99.90;;;;;;5017594;28;20022;-78
2021/10/02 01:11:30;;;;;;;13.43;6.60;;;13.60;99.90;;;;;;5019105;28;20029;-79
2021/10/02 01:14:16;;;;;;;11.98;6.78;;;13.60;99.90;;;;;;5016843;28;20037;-78
2021/10/02 01:16:45;;;;;;;12.82;6.78;;;13.60;99.90;;;;;;5014620;28;20069;-79
2021/10/02 01:19:45;;;;;;;14.13;5.90;;;13.60;99.90;;;;;;5014251;28;20065;-79
2021/10/02 01:22:50;;;;;;;15.25;7.32;;;13.60;99.90;;;;;;5008008;28;20030;-79
2021/10/02 01:25:35;;;;;;;13.88;7.38;;;13.60;99.90;;;;;;5013160;28;20491;-79
2021/10/02 01:28:08;;;;;;;10.63;6.40;;;13.60;99.90;;;;;;5011774;28;20033;-78
2021/10/02 01:33:54;;;;;;;14.60;7.40;;;13.60;99.90;;;;;;5016668;28;20482;-78
2021/10/02 01:36:23;;;;;;;12.05;6.60;;;13.70;99.90;;;;;;5002174;28;20041;-78
2021/10/02 01:47:14;;;;;;;15.13;7.35;;;13.70;99.90;;;;;;5015959;28;20506;-78
2021/10/02 01:49:43;;;;;;;14.32;7.05;;;13.70;99.90;;;;;;5015916;28;20026;-78
2021/10/02 01:52:11;;;;;;;13.57;7.38;;;13.70;99.90;;;;;;5014490;28;20480;-78
2021/10/02 01:54:40;;;;;;;14.33;6.90;;;13.70;99.90;;;;;;5016137;28;20386;-78
2021/10/02 01:57:07;;;;;;;13.98;7.57;;;13.60;99.90;;;;;;5014743;28;20013;-74
2021/10/02 01:59:33;;;;;;;13.52;7.57;;;13.50;99.90;;;;;;5015621;28;20052;-75
2021/10/02 02:02:00;;;;;;;12.88;6.70;;;13.50;99.90;;;;;;5015804;28;20029;-75
2021/10/02 02:04:29;;;;;;;17.92;8.02;;;13.50;99.90;;;;;;5015784;28;20394;-75
2021/10/02 02:06:58;;;;;;;16.38;7.95;;;13.40;99.90;;;;;;5015966;28;20093;-75
2021/10/02 02:09:25;;;;;;;;;;;13.30;99.90;;;;;;5014813;28;20022;-75
2021/10/02 02:11:51;;;;;;;14.98;7.53;;;13.20;99.90;;;;;;5015645;28;19932;-75
2021/10/02 02:14:17;;;;;;;15.48;6.75;;;13.20;99.90;;;;;;5014334;28;20479;-75
2021/10/02 02:16:45;;;;;;;16.27;7.95;;;13.10;99.90;;;;;;5015419;28;20114;-75
2021/10/02 02:19:12;;;;;;;15.50;7.18;;;13.00;99.90;;;;;;5015453;28;20545;-75
2021/10/02 02:21:38;;;;;;;13.57;8.20;;;13.00;99.90;;;;;;5014103;28;20022;-75
2021/10/02 02:24:04;;;;;;;13.40;7.15;;;12.90;99.90;;;;;;5014012;28;20116;-75
2021/10/02 02:26:30;;;;;;;15.68;8.05;;;12.90;99.90;;;;;;5015822;28;20053;-75
2021/10/02 02:28:57;;;;;;;15.55;7.32;;;12.90;99.90;;;;;;5013943;28;20049;-75
2021/10/02 02:31:23;;;;;;;19.38;8.35;;;12.90;99.90;;;;;;5015449;28;20509;-75
2021/10/02 02:33:49;;;;;;;15.50;7.20;;;12.90;99.90;;;;;;5013978;28;20026;-75
2021/10/02 02:36:15;;;;;;;17.35;7.25;;;12.90;99.90;;;;;;5013960;28;20392;-75
2021/10/02 02:38:40;;;;;;;16.35;7.68;;;12.80;99.90;;;;;;5015274;28;20033;-75
2021/10/02 02:41:06;;;;;;;17.48;7.93;;;12.70;99.90;;;;;;5014346;28;20173;-75
2021/10/02 02:43:36;;;;;;;15.65;7.65;;;12.70;99.90;;;;;;5013845;28;20522;-75
2021/10/02 02:46:35;;;;;;;14.48;7.00;;;12.60;99.90;;;;;;5013662;28;20041;-75
2021/10/02 02:49:17;;;;;;;12.30;6.55;;;12.50;99.90;;;;;;5014413;28;20069;-75
2021/10/02 02:52:10;;;;;;;16.20;7.53;;;12.40;99.90;;;;;;5015165;28;20493;-75
2021/10/02 02:54:52;;;;;;;32.13;6.80;;;12.30;99.90;;;;;;5014812;28;20117;-75
2021/10/02 02:57:21;;;;;;;13.48;7.45;;;12.20;99.90;;;;;;5013579;28;20030;-75
2021/10/02 02:59:58;;;;;;;19.17;7.93;;;12.20;99.90;;;;;;5014918;28;20098;-78
2021/10/02 03:02:25;;;;;;;15.77;7.85;;;12.20;99.90;;;;;;5013577;28;20026;-78
2021/10/02 03:04:53;;;;;;;18.42;6.80;;;12.10;99.90;;;;;;5013280;28;20026;-77
2021/10/02 03:07:23;;;;;;;14.65;7.25;;;12.00;99.90;;;;;;5014952;28;20025;-77
2021/10/02 03:09:54;;;;;;;14.43;7.43;;;12.00;99.90;;;;;;5014224;28;20053;-77
2021/10/02 03:12:25;;;;;;;17.65;7.38;;;11.90;99.90;;;;;;5013406;28;20025;-78
2021/10/02 03:14:53;;;;;;;60.28;6.93;;;11.90;99.90;;;;;;5014812;28;20048;-78
2021/10/02 03:17:19;;;;;;;12.18;6.45;;;11.70;99.90;;;;;;5013069;28;20605;-78
2021/10/02 03:19:46;;;;;;;16.33;7.07;;;11.70;99.90;;;;;;5012607;28;20026;-78
2021/10/02 03:22:14;;;;;;;17.27;8.80;;;11.60;99.90;;;;;;5014423;28;20030;-78
2021/10/02 03:24:40;;;;;;;16.25;7.40;;;11.60;99.90;;;;;;5013888;28;20033;-78
2021/10/02 03:27:08;;;;;;;16.58;7.07;;;11.60;99.90;;;;;;5015011;28;20406;-78
2021/10/02 03:29:35;;;;;;;17.65;8.85;;;11.60;99.90;;;;;;5013832;28;20022;-78
2021/10/02 03:32:05;;;;;;;16.17;8.43;;;11.60;99.90;;;;;;5014117;28;20384;-78
2021/10/02 03:34:31;;;;;;;16.08;7.82;;;11.60;99.90;;;;;;5012851;28;20046;-78
2021/10/02 03:36:57;;;;;;;17.50;7.55;;;11.60;99.90;;;;;;5012273;28;20026;-77
2021/10/02 03:39:22;;;;;;;21.30;8.30;;;11.60;99.90;;;;;;5012502;28;20545;-78
2021/10/02 03:42:06;;;;;;;15.55;8.07;;;11.60;99.90;;;;;;5012557;28;20387;-78
2021/10/02 03:44:32;;;;;;;17.23;8.38;;;11.70;99.90;;;;;;5012461;28;20034;-78
2021/10/02 03:46:57;;;;;;;18.45;8.32;;;11.70;99.90;;;;;;5012175;28;20029;-78
2021/10/02 03:49:23;;;;;;;18.33;7.78;;;11.70;99.90;;;;;;5013832;28;20109;-78
2021/10/02 03:51:49;;;;;;;22.88;7.97;;;11.80;99.90;;;;;;5014428;28;20104;-78
2021/10/02 03:54:14;;;;;;;18.50;9.15;;;11.80;99.90;;;;;;5013638;28;20479;-78
2021/10/02 03:56:40;;;;;;;18.45;8.38;;;11.80;99.90;;;;;;5013678;28;20093;-77
2021/10/02 03:59:05;;;;;;;17.08;8.00;;;11.90;99.90;;;;;;5013599;28;20501;-77
2021/10/02 04:01:31;;;;;;;21.02;9.13;;;12.00;99.90;;;;;;5012335;28;20018;-78
2021/10/02 04:03:56;;;;;;;20.80;9.52;;;12.00;99.90;;;;;;5013213;28;20029;-78
2021/10/02 04:06:22;;;;;;;17.25;8.75;;;12.00;99.90;;;;;;5013637;28;20030;-78
2021/10/02 04:08:47;;;;;;;20.55;8.75;;;12.10;99.90;;;;;;5012181;28;20025;-78
2021/10/02 04:11:13;;;;;;;23.20;9.40;;;12.10;99.90;;;;;;5014060;28;20030;-78
2021/10/02 04:13:38;;;;;;;18.17;8.55;;;12.10;99.90;;;;;;5013309;28;20038;-78
2021/10/02 04:16:04;;;;;;;24.02;9.98;;;12.10;99.90;;;;;;5013269;28;20442;-78
2021/10/02 04:18:32;;;;;;;21.73;9.40;;;12.10;99.90;;;;;;5012194;28;20021;-78
2021/10/02 04:20:58;;;;;;;21.10;8.55;;;12.20;99.90;;;;;;5013225;28;20026;-76
2021/10/02 04:23:24;;;;;;;18.85;9.48;;;12.20;99.90;;;;;;5012079;28;20446;-76
2021/10/02 04:25:50;;;;;;;22.02;9.35;;;12.20;99.90;;;;;;5012411;28;20030;-75
2021/10/02 04:28:16;;;;;;;22.20;10.30;;;12.10;99.90;;;;;;5013285;28;20018;-75
2021/10/02 04:30:42;;;;;;;19.52;8.35;;;12.10;99.90;;;;;;5013262;28;20040;-76
2021/10/02 04:33:07;;;;;;;16.58;7.95;;;12.10;99.90;;;;;;5013356;28;20029;-75
2021/10/02 04:35:33;;;;;;;16.35;8.20;;;12.00;99.90;;;;;;5012236;28;20105;-75
2021/10/02 04:37:59;;;;;;;17.92;8.60;;;12.00;99.90;;;;;;5012017;28;20113;-75
2021/10/02 04:40:24;;;;;;;18.30;8.20;;;12.00;99.90;;;;;;5013353;28;20052;-75
2021/10/02 04:42:50;;;;;;;21.25;9.80;;;12.10;99.90;;;;;;5012094;28;20026;-75
2021/10/02 04:45:18;;;;;;;20.98;9.18;;;12.10;99.90;;;;;;5013281;28;20049;-74
2021/10/02 04:47:47;;;;;;;22.65;9.98;;;12.10;99.90;;;;;;5013666;28;20022;-75
2021/10/02 04:50:13;;;;;;;23.85;10.07;;;12.20;99.90;;;;;;5012045;28;20453;-76
2021/10/02 04:52:39;;;;;;;27.45;10.63;;;12.20;99.90;;;;;;5011879;28;20029;-76
2021/10/02 04:55:06;;;;;;;26.70;10.07;;;12.30;99.90;;;;;;5013219;28;20402;-74
2021/10/02 04:57:32;;;;;;;32.70;10.20;;;12.30;99.90;;;;;;5013041;28;20026;-74
2021/10/02 04:59:59;;;;;;;30.65;10.70;;;12.30;99.90;;;;;;5013670;28;20033;-76
2021/10/02 05:02:24;;;;;;;24.48;10.20;;;12.30;99.90;;;;;;5011970;28;20025;-75
2021/10/02 05:04:50;;;;;;;26.77;11.63;;;12.40;99.90;;;;;;5016326;28;20030;-76
2021/10/02 05:07:16;;;;;;;22.33;10.07;;;12.40;99.90;;;;;;5019531;28;20018;-79
2021/10/02 05:09:42;;;;;;;24.95;10.77;;;12.40;99.90;;;;;;5018853;28;20010;-78
2021/10/02 05:12:09;;;;;;;33.28;12.43;;;12.40;99.90;;;;;;5017591;28;20101;-78
2021/10/02 05:14:36;;;;;;;26.33;10.10;;;12.30;99.90;;;;;;5016753;28;20080;-78
2021/10/02 05:17:04;;;;;;;25.33;10.25;;;12.30;99.90;;;;;;5016471;28;20025;-78
2021/10/02 05:19:30;;;;;;;25.05;10.65;;;12.40;99.90;;;;;;5019690;28;20030;-79
2021/10/02 05:21:55;;;;;;;26.58;10.40;;;12.40;99.90;;;;;;5020754;28;20022;-79
2021/10/02 05:24:21;;;;;;;25.30;10.40;;;12.30;99.90;;;;;;5019119;28;20383;-79
2021/10/02 05:26:46;;;;;;;24.80;10.45;;;12.30;99.90;;;;;;5015667;28;20022;-78
2021/10/02 05:29:12;;;;;;;22.98;10.18;;;12.20;99.90;;;;;;5016613;28;20026;-78
2021/10/02 05:31:37;;;;;;;26.33;11.27;;;12.20;99.90;;;;;;5015045;28;20030;-78
2021/10/02 05:34:03;;;;;;;25.52;9.63;;;12.20;99.90;;;;;;5016766;28;20034;-77
2021/10/02 05:36:29;;;;;;;25.80;9.90;;;12.70;99.90;;;;;;5014921;28;20483;-77
2021/10/02 05:38:54;;;;;;;28.85;10.60;;;12.20;99.90;;;;;;5014893;28;20383;-77
2021/10/02 05:41:20;;;;;;;29.17;11.95;;;12.30;99.90;;;;;;5014898;28;20501;-77
2021/10/02 05:43:45;;;;;;;23.45;10.15;;;12.30;99.90;;;;;;5015614;28;20025;-77
2021/10/02 05:46:11;;;;;;;27.80;12.13;;;12.30;99.90;;;;;;5014947;28;20538;-77
2021/10/02 05:48:36;;;;;;;25.40;11.20;;;12.40;99.90;;;;;;5014907;28;20026;-77
2021/10/02 05:51:02;;;;;;;25.35;10.70;;;12.40;99.90;;;;;;5014931;28;20084;-77
2021/10/02 05:53:27;;;;;;;25.55;11.48;;;12.40;99.90;;;;;;5015359;28;20069;-76
2021/10/02 05:55:53;;;;;;;26.63;12.13;;;12.40;99.90;;;;;;5014766;28;20360;-77
2021/10/02 05:58:19;;;;;;;26.25;11.90;;;12.40;99.90;;;;;;5014861;28;20030;-77
2021/10/02 06:00:44;;;;;;;28.52;12.50;;;12.40;99.90;;;;;;5016179;28;20045;-77
2021/10/02 06:03:10;;;;;;;24.35;11.60;;;12.40;99.90;;;;;;5015696;28;20411;-77
2021/10/02 06:05:36;;;;;;;28.90;11.82;;;12.40;99.90;;;;;;5019201;28;20030;-77
2021/10/02 06:08:03;;;;;;;24.58;11.60;;;12.50;99.90;;;;;;5021303;28;20025;-76
2021/10/02 06:10:28;;;;;;;27.90;12.05;;;12.50;99.90;;;;;;5021513;28;20026;-78
2021/10/02 06:12:54;;;;;;;29.92;12.55;;;12.50;99.90;;;;;;5017462;28;20034;-76
2021/10/02 06:15:25;;;;;;;28.40;12.27;;;12.50;99.90;;;;;;5014557;28;20065;-76
2021/10/02 06:17:52;;;;;;;26.95;12.25;;;12.60;99.90;;;;;;5016833;28;20352;-76
2021/10/02 06:20:18;;;;;;;34.42;13.88;;;12.60;99.90;;;;;;5017495;28;20030;-77
2021/10/02 06:22:44;;;;;;;25.17;12.75;;;12.70;99.90;;;;;;5019032;28;20426;-75
2021/10/02 06:25:11;;;;;;;29.77;13.38;;;12.70;99.90;;;;;;5014415;28;20022;-75
2021/10/02 06:27:38;;;;;;;31.23;14.65;;;12.70;99.90;;;;;;5015151;28;20048;-77
2021/10/02 06:30:06;;;;;;;32.45;13.80;;;12.70;99.90;;;;;;5013757;28;20018;-77
2021/10/02 06:32:31;;;;;;;30.25;11.95;;;12.70;99.90;;;;;;5015266;28;20034;-75
2021/10/02 06:34:57;;;;;;;31.40;13.77;;;12.70;99.90;;;;;;5015528;28;20026;-74
2021/10/02 06:37:22;;;;;;;33.03;13.80;;;12.70;99.90;;;;;;5014237;28;20502;-77
2021/10/02 06:39:48;;;;;;;30.35;13.60;;;12.80;99.90;;;;;;5015750;28;20040;-74
2021/10/02 06:42:14;;;;;;;25.20;11.95;;;13.10;99.90;;;;;;5016481;28;20022;-74
2021/10/02 06:44:40;;;;;;;28.08;14.00;;;12.80;99.90;;;;;;5014882;28;20064;-75
2021/10/02 06:47:06;;;;;;;26.67;12.18;;;12.90;99.90;;;;;;5016103;28;20048;-75
2021/10/02 06:49:31;;;;;;;28.55;13.00;;;12.90;99.90;;;;;;5014020;28;20026;-76
2021/10/02 06:51:57;;;;;;;24.92;11.48;;;13.00;99.90;;;;;;5015510;28;20053;-78
2021/10/02 06:54:22;;;;;;;33.58;12.63;;;13.00;99.90;;;;;;5015422;28;20037;-77
2021/10/02 06:56:48;;;;;;;28.55;11.88;;;13.00;99.90;;;;;;5015082;28;20029;-76
2021/10/02 06:59:14;;;;;;;26.83;10.95;;;13.00;99.90;;;;;;5014674;28;20033;-76
2021/10/02 07:01:40;;;;;;;28.83;11.43;;;13.00;99.90;;;;;;5014898;28;20026;-78
2021/10/02 07:04:05;;;;;;;21.58;10.07;;;13.00;99.90;;;;;;5014865;28;20026;-77
2021/10/02 07:06:32;;;;;;;24.33;9.18;;;13.00;99.90;;;;;;5015335;28;20033;-77
2021/10/02 07:08:57;;;;;;;24.02;11.30;;;13.00;99.90;;;;;;5018310;28;20037;-77
2021/10/02 07:11:23;;;;;;;23.23;9.98;;;13.10;99.90;;;;;;5018601;28;20481;-79
2021/10/02 07:13:49;;;;;;;21.45;10.27;;;13.00;99.90;;;;;;5018783;28;20040;-79
2021/10/02 07:16:15;;;;;;;23.85;9.80;;;13.10;99.90;;;;;;5017136;28;20029;-77
2021/10/02 07:18:40;;;;;;;19.55;9.20;;;13.10;99.90;;;;;;5016880;28;20033;-77
2021/10/02 07:21:06;;;;;;;22.63;10.00;;;13.10;99.90;;;;;;5018506;28;20022;-79
2021/10/02 07:23:33;;;;;;;24.52;10.50;;;13.20;99.90;;;;;;5015721;28;20134;-79
2021/10/02 07:25:59;;;;;;;24.88;9.95;;;13.20;99.90;;;;;;5015023;28;20030;-79
2021/10/02 07:28:25;;;;;;;19.92;9.68;;;13.30;99.90;;;;;;5013443;28;20498;-73
2021/10/02 07:30:51;;;;;;;24.65;10.02;;;13.30;99.90;;;;;;5014482;28;20475;-76
2021/10/02 07:33:17;;;;;;;21.88;9.73;;;13.30;99.90;;;;;;5012747;28;20112;-77
2021/10/02 07:35:43;;;;;;;22.70;10.98;;;13.30;99.90;;;;;;5012569;28;20040;-79
2021/10/02 07:38:08;;;;;;;27.52;11.27;;;13.40;99.90;;;;;;5015566;28;20033;-72
2021/10/02 07:40:37;;;;;;;25.73;9.85;;;13.30;99.90;;;;;;5016111;28;20030;-75
2021/10/02 07:43:03;;;;;;;22.23;11.32;;;13.40;99.90;;;;;;5017310;28;20025;-74
2021/10/02 07:45:31;;;;;;;21.90;8.90;;;13.40;99.90;;;;;;5016601;28;20030;-74
2021/10/02 07:47:58;;;;;;;21.63;7.90;;;13.50;99.90;;;;;;5016984;28;20022;-74
2021/10/02 07:50:24;;;;;;;22.63;9.13;;;13.50;99.90;;;;;;5017605;28;20026;-77
2021/10/02 07:52:54;;;;;;;17.77;8.18;;;13.50;99.90;;;;;;5016704;28;20534;-76
2021/10/02 07:55:20;;;;;;;25.23;9.43;;;13.60;99.90;;;;;;5017806;28;20053;-78
2021/10/02 07:57:47;;;;;;;20.67;8.55;;;13.60;99.90;;;;;;5018997;28;20034;-79
2021/10/02 08:00:19;;;;;;;17.80;7.88;;;13.60;99.90;;;;;;5018295;28;20061;-77
2021/10/02 08:02:52;;;;;;;21.55;7.35;;;13.70;99.90;;;;;;5014714;28;20026;-77
2021/10/02 08:05:18;;;;;;;17.63;7.65;;;13.80;99.90;;;;;;5012223;28;20034;-76
2021/10/02 08:07:46;;;;;;;18.58;7.35;;;13.90;99.90;;;;;;5013586;28;20022;-76
2021/10/02 08:10:15;;;;;;;14.07;6.00;;;13.90;99.90;;;;;;5013989;28;20056;-77
2021/10/02 08:12:41;;;;;;;15.27;5.80;;;14.00;99.90;;;;;;5013915;28;20442;-75
2021/10/02 08:15:08;;;;;;;12.45;5.18;;;14.00;99.90;;;;;;5013163;28;20025;-75
2021/10/02 08:17:36;;;;;;;13.95;5.38;;;14.10;99.90;;;;;;5012994;28;20056;-75
2021/10/02 08:20:08;;;;;;;16.55;5.40;;;14.20;99.90;;;;;;5016239;28;20026;-75
2021/10/02 08:22:40;;;;;;;8.55;4.50;;;14.30;99.90;;;;;;5017573;28;20026;-74
2021/10/02 08:25:07;;;;;;;12.07;5.32;;;14.20;99.90;;;;;;5014705;28;20490;-74
2021/10/02 08:27:34;;;;;;;8.93;4.45;;;14.30;99.90;;;;;;5013415;28;20118;-74
2021/10/02 08:30:01;;;;;;;10.93;4.60;;;14.30;99.90;;;;;;5013619;28;20019;-74
2021/10/02 08:32:27;;;;;;;14.23;4.53;;;14.40;99.90;;;;;;5013330;28;20038;-74
2021/10/02 08:34:52;;;;;;;10.75;4.28;;;14.40;99.90;;;;;;5012329;28;20037;-75
2021/10/02 08:37:18;;;;;;;9.50;4.53;;;14.50;99.90;;;;;;5012817;28;20030;-74
2021/10/02 08:39:46;;;;;;;11.82;4.18;;;14.60;99.90;;;;;;5015575;28;20386;-74
2021/10/02 08:42:12;;;;;;;11.13;3.50;;;14.60;99.90;;;;;;5016121;28;20552;-74
2021/10/02 08:44:38;;;;;;;8.32;3.58;;;14.70;99.90;;;;;;5017421;28;20022;-74
2021/10/02 08:47:04;;;;;;;9.20;3.67;;;14.70;99.90;;;;;;5017798;28;20077;-74
2021/10/02 08:49:45;;;;;;;8.15;3.75;;;14.70;99.90;;;;;;5015860;28;20114;-74
2021/10/02 08:52:14;;;;;;;11.05;3.08;;;14.70;99.90;;;;;;5016008;28;20026;-74
2021/10/02 08:54:42;;;;;;;7.15;3.55;;;14.70;99.90;;;;;;5015883;28;20022;-74
2021/10/02 08:57:16;;;;;;;9.27;3.70;;;14.80;99.90;;;;;;5015892;28;20029;-74
2021/10/02 08:59:42;;;;;;;11.15;3.50;;;14.90;99.90;;;;;;5017335;28;20037;-74
2021/10/02 09:02:09;;;;;;;8.23;3.08;;;15.00;99.90;;;;;;5015750;28;20022;-74
2021/10/02 09:04:36;;;;;;;9.73;3.35;;;15.50;99.90;;;;;;5017512;28;20022;-74
2021/10/02 09:07:03;;;;;;;9.02;3.45;;;15.30;99.90;;;;;;5017270;28;20406;-74
2021/10/02 09:09:29;;;;;;;12.52;3.65;;;15.40;99.90;;;;;;5016834;28;20057;-75
2021/10/02 09:11:55;;;;;;;7.50;3.03;;;15.50;99.90;;;;;;5016985;28;20076;-75
2021/10/02 09:14:20;;;;;;;9.32;3.42;;;15.50;99.90;;;;;;5016038;28;20435;-75
2021/10/02 09:16:46;;;;;;;8.93;2.35;;;15.40;99.90;;;;;;5015503;28;20430;-75
2021/10/02 09:19:12;;;;;;;8.05;2.85;;;15.50;99.90;;;;;;5016966;28;20036;-74
2021/10/02 09:21:53;;;;;;;5.88;2.85;;;15.40;99.90;;;;;;5016521;28;20069;-74
2021/10/02 09:24:26;;;;;;;8.00;2.83;;;15.50;99.90;;;;;;5016682;28;20030;-73
2021/10/02 09:26:53;;;;;;;19.35;4.75;;;15.60;99.90;;;;;;5016330;28;20014;-73
2021/10/02 09:29:38;;;;;;;8.40;3.70;;;15.70;99.90;;;;;;5016507;28;20030;-73
2021/10/02 09:32:06;;;;;;;7.32;3.95;;;15.70;99.90;;;;;;5016611;28;20394;-73
2021/10/02 09:34:41;;;;;;;13.85;4.22;;;15.80;99.90;;;;;;5015274;28;20018;-72
2021/10/02 09:37:18;;;;;;;14.95;4.93;;;16.00;99.90;;;;;;5016178;28;20483;-73
2021/10/02 09:39:44;;;;;;;10.90;4.22;;;16.10;99.90;;;;;;5016228;28;20061;-73
2021/10/02 09:42:41;;;;;;;12.25;3.72;;;16.20;99.90;;;;;;5015794;28;20037;-73
2021/10/02 09:45:11;;;;;;;13.25;3.97;;;16.20;99.90;;;;;;5016423;28;20021;-72
2021/10/02 09:47:39;;;;;;;10.27;2.28;;;16.10;99.90;;;;;;5015970;28;20049;-74
2021/10/02 09:50:19;;;;;;;4.95;2.45;;;16.10;99.90;;;;;;5015794;28;20018;-74
2021/10/02 09:52:47;;;;;;;7.25;2.20;;;16.10;99.90;;;;;;5015928;28;20029;-74
2021/10/02 09:55:35;;;;;;;6.28;2.38;;;16.10;99.90;;;;;;5016169;28;20491;-74
2021/10/02 09:58:06;;;;;;;7.22;2.95;;;16.20;99.90;;;;;;5015656;28;20060;-73
2021/10/02 10:00:45;;;;;;;8.07;3.50;;;16.10;99.90;;;;;;5015801;28;20399;-73
2021/10/02 10:03:16;;;;;;;5.85;2.70;;;16.10;99.90;;;;;;5014431;28;20095;-73
2021/10/02 10:05:51;;;;;;;7.25;2.85;;;16.10;99.90;;;;;;5015629;28;20379;-73
2021/10/02 10:08:26;;;;;;;7.68;1.98;;;16.20;99.90;;;;;;5015862;28;20517;-73
2021/10/02 10:11:05;;;;;;;9.25;2.92;;;16.30;99.90;;;;;;5016362;28;20344;-72
2021/10/02 10:13:31;;;;;;;6.40;2.40;;;16.40;99.90;;;;;;5015274;28;20475;-73
2021/10/02 10:15:57;;;;;;;8.55;2.58;;;16.50;99.90;;;;;;5015182;28;20104;-73
2021/10/02 10:18:30;;;;;;;6.32;2.63;;;16.50;99.90;;;;;;5013576;28;20038;-73
2021/10/02 10:21:05;;;;;;;8.60;2.72;;;16.30;99.90;;;;;;5016008;28;20061;-73
2021/10/02 10:23:40;;;;;;;7.93;3.20;;;16.20;99.90;;;;;;5014053;28;20018;-74
2021/10/02 10:26:10;;;;;;;4.38;2.25;;;16.20;99.90;;;;;;5015422;28;20038;-74
2021/10/02 10:28:38;;;;;;;7.28;2.38;;;16.30;99.90;;;;;;5015050;28;20022;-75
2021/10/02 10:31:13;;;;;;;7.82;2.20;;;16.40;99.90;;;;;;5015653;28;20148;-76
2021/10/02 10:33:40;;;;;;;7.57;2.35;;;16.30;99.90;;;;;;5014675;28;20042;-73
2021/10/02 10:36:07;;;;;;;7.50;1.85;;;16.20;99.90;;;;;;5003045;28;20113;-73
2021/10/02 10:38:36;;;;;;;10.38;2.88;;;16.20;99.90;;;;;;5015124;28;20033;-73
2021/10/02 10:41:05;;;;;;;12.55;2.60;;;16.10;99.90;;;;;;5013955;28;20026;-73
2021/10/02 10:43:32;;;;;;;9.10;2.95;;;16.10;99.90;;;;;;5013654;28;20068;-73
2021/10/02 10:46:04;;;;;;;9.90;2.95;;;16.10;99.90;;;;;;5015241;28;20037;-74
2021/10/02 10:48:30;;;;;;;8.05;2.88;;;16.20;99.90;;;;;;5013775;28;20025;-75
2021/10/02 10:51:03;;;;;;;9.50;3.15;;;16.20;99.90;;;;;;5015040;28;20063;-74
2021/10/02 10:53:40;;;;;;;5.28;2.95;;;16.20;99.90;;;;;;5019421;28;20026;-79
2021/10/02 10:56:13;;;;;;;9.32;3.38;;;16.10;99.90;;;;;;5021015;28;20026;-76
2021/10/02 10:58:40;;;;;;;6.13;3.35;;;16.10;99.90;;;;;;5017141;28;20049;-75
2021/10/02 11:01:09;;;;;;;7.20;2.30;;;16.10;99.90;;;;;;5018212;28;20021;-75
2021/10/02 11:03:47;;;;;;;;;;;16.10;99.90;;;;;;5019228;28;20026;-75
2021/10/02 11:06:15;;;;;;;7.90;2.75;;;16.10;99.90;;;;;;5019532;28;19932;-75
2021/10/02 11:08:59;;;;;;;6.45;3.03;;;16.00;99.90;;;;;;5016178;28;20495;-75
2021/10/02 11:11:43;;;;;;;9.27;2.63;;;16.00;99.90;;;;;;5017200;28;20104;-76
2021/10/02 11:14:10;;;;;;;7.15;2.47;;;16.00;99.90;;;;;;5016756;28;20026;-73
2021/10/02 11:16:44;;;;;;;6.93;2.28;;;16.00;99.90;;;;;;5016329;28;20026;-74
2021/10/02 11:19:26;;;;;;;4.28;1.48;;;16.10;99.90;;;;;;5018082;28;20021;-75
2021/10/02 11:22:42;;;;;;;10.48;1.40;;;16.10;99.90;;;;;;5015051;28;20057;-74
2021/10/02 11:25:19;;;;;;;5.72;2.05;;;16.20;99.90;;;;;;5017986;28;20053;-75
2021/10/02 11:27:45;;;;;;;6.43;1.88;;;16.30;99.90;;;;;;5017509;28;20386;-75
2021/10/02 11:30:16;;;;;;;7.97;1.27;;;16.30;99.90;;;;;;5016869;28;20018;-74
2021/10/02 11:32:42;;;;;;;5.03;1.42;;;16.40;99.90;;;;;;5018210;28;20041;-76
2021/10/02 11:35:18;;;;;;;7.90;1.23;;;16.40;99.90;;;;;;5017182;28;20033;-75
2021/10/02 11:37:51;;;;;;;4.15;1.48;;;16.40;99.90;;;;;;5017329;28;20038;-75
2021/10/02 11:40:35;;;;;;;2.97;1.00;;;16.40;99.90;;;;;;5018459;28;20091;-75
2021/10/02 11:43:17;;;;;;;8.98;1.60;;;16.30;99.90;;;;;;5017273;28;20033;-74
2021/10/02 11:45:45;;;;;;;6.03;1.27;;;16.20;99.90;;;;;;5016800;28;20516;-74
2021/10/02 11:48:15;;;;;;;10.05;1.42;;;16.10;99.90;;;;;;5016170;28;20025;-74
2021/10/02 11:50:43;;;;;;;2.65;0.80;;;16.00;99.90;;;;;;5018100;28;20026;-74
2021/10/02 11:53:11;;;;;;;3.30;0.27;;;16.10;99.90;;;;;;5019695;28;20076;-74
2021/10/02 11:55:43;;;;;;;6.35;0.80;;;16.20;99.90;;;;;;5018901;28;20018;-76
2021/10/02 11:58:11;;;;;;;7.38;0.20;;;16.40;99.90;;;;;;5016416;28;20033;-74
2021/10/02 12:00:59;;;;;;;2.90;0.55;;;16.70;99.90;;;;;;5017833;28;20034;-74
2021/10/02 12:03:33;;;;;;;6.22;0.47;;;17.00;99.90;;;;;;5018521;28;20109;-74
2021/10/02 12:06:01;;;;;;;2.72;0.32;;;17.20;99.90;;;;;;5017563;28;20073;-75
2021/10/02 12:08:27;;;;;;;2.37;0.10;;;17.40;99.90;;;;;;5017406;28;20017;-75
2021/10/02 12:10:58;;;;;;;1.80;0.20;;;17.80;99.90;;;;;;5016340;28;20332;-75
2021/10/02 12:13:27;;;;;;;2.17;0.00;;;18.30;99.90;;;;;;5017170;28;20093;-75
2021/10/02 12:16:10;;;;;;;5.28;0.20;;;18.60;99.90;;;;;;5016758;28;20037;-74
2021/10/02 12:19:10;;;;;;;2.15;0.50;;;18.80;99.90;;;;;;5016731;28;20487;-75
2021/10/02 12:21:57;;;;;;;1.13;0.10;;;19.00;99.90;;;;;;5017760;28;20026;-75
2021/10/02 12:24:38;;;;;;;1.67;0.10;;;19.00;99.90;;;;;;5016515;28;20030;-75
2021/10/02 12:27:07;;;;;;;0.85;0.55;;;19.00;99.90;;;;;;5018094;28;20026;-75
2021/10/02 12:29:40;;;;;;;2.35;0.32;;;19.00;99.90;;;;;;5017122;28;20030;-75
2021/10/02 12:32:10;;;;;;;1.70;0.60;;;18.90;99.90;;;;;;5016481;28;20030;-75
2021/10/02 12:34:41;;;;;;;0.93;0.20;;;18.60;99.90;;;;;;5017210;28;20029;-75
2021/10/02 12:37:41;;;;;;;1.77;0.10;;;18.40;99.90;;;;;;5017624;28;20092;-76
2021/10/02 12:40:12;;;;;;;12.93;0.50;;;18.20;99.90;;;;;;5016728;28;20127;-75
2021/10/02 12:42:38;;;;;;;5.50;0.43;;;17.90;99.90;;;;;;5016628;28;20029;-74
2021/10/02 12:45:07;;;;;;;2.22;0.50;;;17.70;99.90;;;;;;5018854;28;20033;-74
2021/10/02 12:47:33;;;;;;;1.58;0.32;;;17.60;99.90;;;;;;5017069;28;20039;-74
2021/10/02 12:50:01;;;;;;;2.83;0.10;;;17.40;99.90;;;;;;5017018;28;20021;-75
2021/10/02 12:52:28;;;;;;;2.60;0.20;;;17.40;99.90;;;;;;5017161;28;20030;-75
2021/10/02 12:54:56;;;;;;;1.05;0.40;;;17.40;99.90;;;;;;5017920;28;20029;-75
2021/10/02 12:57:25;;;;;;;0.15;0.00;;;17.50;99.90;;;;;;5016398;28;20021;-75
2021/10/02 13:00:12;;;;;;;1.63;0.10;;;17.50;99.90;;;;;;5018175;28;20022;-75
2021/10/02 13:02:47;;;;;;;0.77;0.00;;;17.50;99.90;;;;;;5017099;28;20126;-75
2021/10/02 13:05:14;;;;;;;0.95;0.25;;;17.50;99.90;;;;;;5017544;28;20018;-75
2021/10/02 13:07:48;;;;;;;0.75;0.00;;;17.40;99.90;;;;;;5016082;28;20033;-74
2021/10/02 13:10:21;;;;;;;3.47;0.75;;;17.40;99.90;;;;;;5018623;28;20542;-75
2021/10/02 13:12:52;;;;;;;0.95;0.10;;;17.30;99.90;;;;;;5016580;28;20172;-75
2021/10/02 13:15:31;;;;;;;0.30;0.20;;;17.20;99.90;;;;;;5018363;28;20037;-75
2021/10/02 13:18:01;;;;;;;2.70;0.30;;;17.10;99.90;;;;;;5017333;28;20033;-75
2021/10/02 13:20:31;;;;;;;3.63;0.22;;;17.00;99.90;;;;;;5017414;28;20033;-75
2021/10/02 13:23:07;;;;;;;1.95;0.20;;;16.90;99.90;;;;;;5017946;28;20026;-74
2021/10/02 13:25:44;;;;;;;2.33;0.25;;;16.80;99.90;;;;;;5018618;28;20450;-75
2021/10/02 13:28:25;;;;;;;0.35;0.10;;;16.70;99.90;;;;;;5021918;28;20109;-75
2021/10/02 13:30:52;;;;;;;1.13;0.40;;;16.70;99.90;;;;;;5022531;28;20033;-75
2021/10/02 13:33:18;;;;;;;0.40;0.00;;;16.70;99.90;;;;;;5020897;28;20042;-75
2021/10/02 13:35:53;;;;;;;0.95;0.00;;;16.70;99.90;;;;;;5021824;28;20113;-75
2021/10/02 13:38:39;;;;;;;1.83;0.00;;;16.60;99.90;;;;;;5023139;28;20042;-74
2021/10/02 13:41:10;;;;;;;1.25;0.00;;;16.60;99.90;;;;;;5022506;28;20026;-75
2021/10/02 13:43:56;;;;;;;4.18;0.45;;;16.60;99.90;;;;;;5019420;28;20026;-75
2021/10/02 13:46:37;;;;;;;1.27;0.10;;;16.60;99.90;;;;;;5021432;28;20025;-75